sensor_id;sensor_type;location;lat;lon;timestamp;temperature;humidity
41435;DHT22;27177;22.262;114.192;2022-11-12T00:06:51;22.00;99.90
41435;DHT22;27177;22.262;114.192;2022-11-12T00:11:53;22.10;99.90
41435;DHT22;27177;22.262;114.192;2022-11-12T00:16:55;22.10;99.90
41435;DHT22;27177;22.262;114.192;2022-11-12T00:19:22;22.10;99.90
41435;DHT22;27177;22.262;114.192;2022-11-12T00:21:49;22.10;99.90
41435;DHT22;27177;22.262;114.192;2022-11-12T00:24:15;22.20;99.90
41435;DHT22;27177;22.262;114.192;2022-11-12T00:26:42;22.20;99.90
41435;DHT22;27177;22.262;114.192;2022-11-12T00:29:09;22.20;99.90
41435;DHT22;27177;22.262;114.192;2022-11-12T00:31:35;22.20;99.90
41435;DHT22;27177;22.262;114.192;2022-11-12T00:34:02;22.20;99.90
41435;DHT22;27177;22.262;114.192;2022-11-12T00:36:29;22.20;99.90
41435;DHT22;27177;22.262;114.192;2022-11-12T00:38:56;22.20;99.90
41435;DHT22;27177;22.262;114.192;2022-11-12T00:41:22;22.20;99.90
41435;DHT22;27177;22.262;114.192;2022-11-12T00:43:49;22.20;99.90
41435;DHT22;27177;22.262;114.192;2022-11-12T00:46:20;22.10;99.90
41435;DHT22;27177;22.262;114.192;2022-11-12T00:48:46;22.20;99.90
41435;DHT22;27177;22.262;114.192;2022-11-12T00:51:13;22.20;99.90
41435;DHT22;27177;22.262;114.192;2022-11-12T00:53:40;22.20;99.90
41435;DHT22;27177;22.262;114.192;2022-11-12T00:56:07;22.30;99.90
41435;DHT22;27177;22.262;114.192;2022-11-12T00:58:35;22.30;99.90
41435;DHT22;27177;22.262;114.192;2022-11-12T01:01:10;22.30;99.90
41435;DHT22;27177;22.262;114.192;2022-11-12T01:03:39;22.40;99.90
41435;DHT22;27177;22.262;114.192;2022-11-12T01:06:09;22.40;99.90
41435;DHT22;27177;22.262;114.192;2022-11-12T01:08:37;22.50;99.90
41435;DHT22;27177;22.262;114.192;2022-11-12T01:11:07;22.50;99.90
41435;DHT22;27177;22.262;114.192;2022-11-12T01:16:08;22.60;99.90
41435;DHT22;27177;22.262;114.192;2022-11-12T01:18:35;22.70;99.90
41435;DHT22;27177;22.262;114.192;2022-11-12T01:21:06;22.70;99.90
41435;DHT22;27177;22.262;114.192;2022-11-12T01:23:35;22.80;99.90
41435;DHT22;27177;22.262;114.192;2022-11-12T01:26:10;22.80;99.90
41435;DHT22;27177;22.262;114.192;2022-11-12T01:28:37;22.90;99.90
41435;DHT22;27177;22.262;114.192;2022-11-12T01:31:27;23.00;99.90
41435;DHT22;27177;22.262;114.192;2022-11-12T01:33:56;23.00;99.90
41435;DHT22;27177;22.262;114.192;2022-11-12T01:36:25;23.10;99.90
41435;DHT22;27177;22.262;114.192;2022-11-12T01:38:52;23.20;99.90
41435;DHT22;27177;22.262;114.192;2022-11-12T01:41:22;23.30;99.90
41435;DHT22;27177;22.262;114.192;2022-11-12T01:44:14;23.40;99.90
41435;DHT22;27177;22.262;114.192;2022-11-12T01:51:55;23.50;99.90
41435;DHT22;27177;22.262;114.192;2022-11-12T01:54:25;23.60;99.90
41435;DHT22;27177;22.262;114.192;2022-11-12T01:56:54;23.60;99.90
41435;DHT22;27177;22.262;114.192;2022-11-12T01:59:26;23.70;99.90
41435;DHT22;27177;22.262;114.192;2022-11-12T02:01:54;23.80;99.90
41435;DHT22;27177;22.262;114.192;2022-11-12T02:04:21;23.90;99.90
41435;DHT22;27177;22.262;114.192;2022-11-12T02:06:50;24.00;99.90
41435;DHT22;27177;22.262;114.192;2022-11-12T02:09:17;24.00;99.90
41435;DHT22;27177;22.262;114.192;2022-11-12T02:11:44;24.20;99.90
41435;DHT22;27177;22.262;114.192;2022-11-12T02:14:12;24.20;99.90
41435;DHT22;27177;22.262;114.192;2022-11-12T02:16:41;24.30;99.90
41435;DHT22;27177;22.262;114.192;2022-11-12T02:19:11;24.40;99.90
41435;DHT22;27177;22.262;114.192;2022-11-12T02:21:39;24.40;99.90
41435;DHT22;27177;22.262;114.192;2022-11-12T02:26:41;24.50;99.90
41435;DHT22;27177;22.262;114.192;2022-11-12T02:29:10;24.60;99.90
41435;DHT22;27177;22.262;114.192;2022-11-12T02:31:37;24.60;99.90
41435;DHT22;27177;22.262;114.192;2022-11-12T02:34:04;24.60;99.90
41435;DHT22;27177;22.262;114.192;2022-11-12T02:36:31;24.60;99.90
41435;DHT22;27177;22.262;114.192;2022-11-12T02:38:58;24.50;99.90
41435;DHT22;27177;22.262;114.192;2022-11-12T02:41:24;24.50;99.90
41435;DHT22;27177;22.262;114.192;2022-11-12T02:43:51;24.50;99.90
41435;DHT22;27177;22.262;114.192;2022-11-12T02:46:18;24.60;99.90
41435;DHT22;27177;22.262;114.192;2022-11-12T02:48:45;24.60;99.90
41435;DHT22;27177;22.262;114.192;2022-11-12T02:51:12;24.60;99.90
41435;DHT22;27177;22.262;114.192;2022-11-12T02:53:39;24.60;99.90
41435;DHT22;27177;22.262;114.192;2022-11-12T02:56:06;24.40;99.90
41435;DHT22;27177;22.262;114.192;2022-11-12T02:58:32;24.50;99.90
41435;DHT22;27177;22.262;114.192;2022-11-12T03:06:02;24.50;99.90
41435;DHT22;27177;22.262;114.192;2022-11-12T03:08:29;24.50;99.90
41435;DHT22;27177;22.262;114.192;2022-11-12T03:10:56;24.50;99.90
41435;DHT22;27177;22.262;114.192;2022-11-12T03:13:23;24.50;99.90
41435;DHT22;27177;22.262;114.192;2022-11-12T03:15:49;24.40;99.90
41435;DHT22;27177;22.262;114.192;2022-11-12T03:18:23;24.40;99.90
41435;DHT22;27177;22.262;114.192;2022-11-12T03:20:51;24.50;99.90
41435;DHT22;27177;22.262;114.192;2022-11-12T03:23:17;24.50;99.90
41435;DHT22;27177;22.262;114.192;2022-11-12T03:25:44;24.50;99.90
41435;DHT22;27177;22.262;114.192;2022-11-12T03:28:13;24.50;99.90
41435;DHT22;27177;22.262;114.192;2022-11-12T03:30:41;24.50;99.90
41435;DHT22;27177;22.262;114.192;2022-11-12T03:33:11;24.50;99.90
41435;DHT22;27177;22.262;114.192;2022-11-12T03:35:39;24.50;99.90
41435;DHT22;27177;22.262;114.192;2022-11-12T03:38:06;24.50;99.90
41435;DHT22;27177;22.262;114.192;2022-11-12T03:43:08;24.40;99.90
41435;DHT22;27177;22.262;114.192;2022-11-12T03:45:35;24.30;99.90
41435;DHT22;27177;22.262;114.192;2022-11-12T03:48:02;24.40;99.90
41435;DHT22;27177;22.262;114.192;2022-11-12T03:50:29;24.50;99.90
41435;DHT22;27177;22.262;114.192;2022-11-12T03:52:57;24.60;99.90
41435;DHT22;27177;22.262;114.192;2022-11-12T03:57:57;24.70;99.90
41435;DHT22;27177;22.262;114.192;2022-11-12T04:00:26;24.70;99.90
41435;DHT22;27177;22.262;114.192;2022-11-12T04:02:54;24.80;99.90
41435;DHT22;27177;22.262;114.192;2022-11-12T04:05:21;24.80;99.90
41435;DHT22;27177;22.262;114.192;2022-11-12T04:08:14;24.70;99.90
41435;DHT22;27177;22.262;114.192;2022-11-12T04:10:59;24.70;99.90
41435;DHT22;27177;22.262;114.192;2022-11-12T04:16:03;24.80;99.90
41435;DHT22;27177;22.262;114.192;2022-11-12T04:21:27;25.00;99.90
41435;DHT22;27177;22.262;114.192;2022-11-12T04:24:13;25.00;99.90
41435;DHT22;27177;22.262;114.192;2022-11-12T04:27:00;25.10;99.90
41435;DHT22;27177;22.262;114.192;2022-11-12T04:29:27;25.10;99.90
41435;DHT22;27177;22.262;114.192;2022-11-12T04:32:12;25.00;99.90
41435;DHT22;27177;22.262;114.192;2022-11-12T04:34:38;25.00;99.90
41435;DHT22;27177;22.262;114.192;2022-11-12T04:37:05;25.00;99.90
41435;DHT22;27177;22.262;114.192;2022-11-12T04:39:32;25.00;99.90
41435;DHT22;27177;22.262;114.192;2022-11-12T04:41:59;24.90;99.90
41435;DHT22;27177;22.262;114.192;2022-11-12T04:44:45;25.00;99.90
41435;DHT22;27177;22.262;114.192;2022-11-12T04:47:39;25.00;99.90
41435;DHT22;27177;22.262;114.192;2022-11-12T04:52:40;25.00;99.90
41435;DHT22;27177;22.262;114.192;2022-11-12T04:57:42;24.90;99.90
41435;DHT22;27177;22.262;114.192;2022-11-12T05:00:10;24.90;99.90
41435;DHT22;27177;22.262;114.192;2022-11-12T05:02:37;25.00;99.90
41435;DHT22;27177;22.262;114.192;2022-11-12T05:05:04;25.00;99.90
41435;DHT22;27177;22.262;114.192;2022-11-12T05:07:32;25.00;99.90
41435;DHT22;27177;22.262;114.192;2022-11-12T05:09:58;25.00;99.90
41435;DHT22;27177;22.262;114.192;2022-11-12T05:12:25;25.10;99.90
41435;DHT22;27177;22.262;114.192;2022-11-12T05:14:52;25.00;99.90
41435;DHT22;27177;22.262;114.192;2022-11-12T05:17:19;25.10;99.90
41435;DHT22;27177;22.262;114.192;2022-11-12T05:19:45;25.10;99.90
41435;DHT22;27177;22.262;114.192;2022-11-12T05:22:12;25.10;99.90
41435;DHT22;27177;22.262;114.192;2022-11-12T05:24:41;25.10;99.90
41435;DHT22;27177;22.262;114.192;2022-11-12T05:29:52;25.20;99.90
41435;DHT22;27177;22.262;114.192;2022-11-12T05:32:19;25.20;99.90
41435;DHT22;27177;22.262;114.192;2022-11-12T05:34:45;25.30;99.90
41435;DHT22;27177;22.262;114.192;2022-11-12T05:37:14;25.30;99.90
41435;DHT22;27177;22.262;114.192;2022-11-12T05:39:41;25.30;99.90
41435;DHT22;27177;22.262;114.192;2022-11-12T05:42:08;25.40;99.90
41435;DHT22;27177;22.262;114.192;2022-11-12T05:44:35;25.40;99.90
41435;DHT22;27177;22.262;114.192;2022-11-12T05:47:01;25.40;99.90
41435;DHT22;27177;22.262;114.192;2022-11-12T05:49:28;25.40;99.90
41435;DHT22;27177;22.262;114.192;2022-11-12T05:51:55;25.40;99.90
41435;DHT22;27177;22.262;114.192;2022-11-12T05:54:22;25.40;99.90
41435;DHT22;27177;22.262;114.192;2022-11-12T05:56:51;25.30;99.90
41435;DHT22;27177;22.262;114.192;2022-11-12T05:59:18;25.30;99.90
41435;DHT22;27177;22.262;114.192;2022-11-12T06:04:21;25.30;99.90
41435;DHT22;27177;22.262;114.192;2022-11-12T06:06:49;25.30;99.90
41435;DHT22;27177;22.262;114.192;2022-11-12T06:09:15;25.20;99.90
41435;DHT22;27177;22.262;114.192;2022-11-12T06:11:42;25.20;99.90
41435;DHT22;27177;22.262;114.192;2022-11-12T06:14:09;25.10;99.90
41435;DHT22;27177;22.262;114.192;2022-11-12T06:19:12;25.20;99.90
41435;DHT22;27177;22.262;114.192;2022-11-12T06:21:39;25.10;99.90
41435;DHT22;27177;22.262;114.192;2022-11-12T06:24:06;25.10;99.90
41435;DHT22;27177;22.262;114.192;2022-11-12T06:29:08;24.90;99.90
41435;DHT22;27177;22.262;114.192;2022-11-12T06:31:34;24.80;99.90
41435;DHT22;27177;22.262;114.192;2022-11-12T06:34:01;24.90;99.90
41435;DHT22;27177;22.262;114.192;2022-11-12T06:36:28;25.00;99.90
41435;DHT22;27177;22.262;114.192;2022-11-12T06:38:55;25.10;99.90
41435;DHT22;27177;22.262;114.192;2022-11-12T06:41:21;25.40;99.90
41435;DHT22;27177;22.262;114.192;2022-11-12T06:43:48;25.50;99.90
41435;DHT22;27177;22.262;114.192;2022-11-12T06:46:15;25.50;99.90
41435;DHT22;27177;22.262;114.192;2022-11-12T06:48:42;25.50;99.90
41435;DHT22;27177;22.262;114.192;2022-11-12T06:51:15;25.50;99.90
41435;DHT22;27177;22.262;114.192;2022-11-12T06:53:42;25.40;99.90
41435;DHT22;27177;22.262;114.192;2022-11-12T06:56:09;25.50;99.90
41435;DHT22;27177;22.262;114.192;2022-11-12T06:58:36;25.50;99.90
41435;DHT22;27177;22.262;114.192;2022-11-12T07:03:39;25.60;99.90
41435;DHT22;27177;22.262;114.192;2022-11-12T07:08:44;25.70;99.90
41435;DHT22;27177;22.262;114.192;2022-11-12T07:11:11;25.70;99.90
41435;DHT22;27177;22.262;114.192;2022-11-12T07:13:42;25.70;99.90
41435;DHT22;27177;22.262;114.192;2022-11-12T07:16:13;25.60;99.90
41435;DHT22;27177;22.262;114.192;2022-11-12T07:18:47;25.60;99.90
41435;DHT22;27177;22.262;114.192;2022-11-12T07:21:18;25.60;99.90
41435;DHT22;27177;22.262;114.192;2022-11-12T07:23:46;25.60;99.90
41435;DHT22;27177;22.262;114.192;2022-11-12T07:28:41;25.50;99.90
41435;DHT22;27177;22.262;114.192;2022-11-12T07:31:11;25.40;99.90
41435;DHT22;27177;22.262;114.192;2022-11-12T07:33:38;25.40;99.90
41435;DHT22;27177;22.262;114.192;2022-11-12T07:36:06;25.40;99.90
41435;DHT22;27177;22.262;114.192;2022-11-12T07:38:36;25.40;99.90
41435;DHT22;27177;22.262;114.192;2022-11-12T07:41:12;25.40;99.90
41435;DHT22;27177;22.262;114.192;2022-11-12T07:43:44;25.30;99.90
41435;DHT22;27177;22.262;114.192;2022-11-12T07:46:21;25.20;99.90
41435;DHT22;27177;22.262;114.192;2022-11-12T07:48:48;25.20;99.90
41435;DHT22;27177;22.262;114.192;2022-11-12T07:51:26;25.20;99.90
41435;DHT22;27177;22.262;114.192;2022-11-12T07:53:55;25.10;99.90
41435;DHT22;27177;22.262;114.192;2022-11-12T07:56:23;25.10;99.90
41435;DHT22;27177;22.262;114.192;2022-11-12T07:58:51;25.00;99.90
41435;DHT22;27177;22.262;114.192;2022-11-12T08:01:34;25.00;99.90
41435;DHT22;27177;22.262;114.192;2022-11-12T08:04:02;24.90;99.90
41435;DHT22;27177;22.262;114.192;2022-11-12T08:06:30;24.80;99.90
41435;DHT22;27177;22.262;114.192;2022-11-12T08:08:59;24.80;99.90
41435;DHT22;27177;22.262;114.192;2022-11-12T08:11:26;24.80;99.90
41435;DHT22;27177;22.262;114.192;2022-11-12T08:13:53;24.80;99.90
41435;DHT22;27177;22.262;114.192;2022-11-12T08:16:20;24.70;99.90
41435;DHT22;27177;22.262;114.192;2022-11-12T08:18:47;24.70;99.90
41435;DHT22;27177;22.262;114.192;2022-11-12T08:21:15;24.70;99.90
41435;DHT22;27177;22.262;114.192;2022-11-12T08:23:42;24.60;99.90
41435;DHT22;27177;22.262;114.192;2022-11-12T08:26:15;24.60;99.90
41435;DHT22;27177;22.262;114.192;2022-11-12T08:28:42;24.60;99.90
41435;DHT22;27177;22.262;114.192;2022-11-12T08:31:14;24.50;99.90
41435;DHT22;27177;22.262;114.192;2022-11-12T08:33:42;24.50;99.90
41435;DHT22;27177;22.262;114.192;2022-11-12T08:36:11;24.40;99.90
41435;DHT22;27177;22.262;114.192;2022-11-12T08:38:38;24.30;99.90
41435;DHT22;27177;22.262;114.192;2022-11-12T08:41:08;24.30;99.90
41435;DHT22;27177;22.262;114.192;2022-11-12T08:43:36;24.20;99.90
41435;DHT22;27177;22.262;114.192;2022-11-12T08:46:03;24.10;99.90
41435;DHT22;27177;22.262;114.192;2022-11-12T08:48:31;24.10;99.90
41435;DHT22;27177;22.262;114.192;2022-11-12T08:51:03;24.00;99.90
41435;DHT22;27177;22.262;114.192;2022-11-12T08:53:30;23.90;99.90
41435;DHT22;27177;22.262;114.192;2022-11-12T08:55:57;23.90;99.90
41435;DHT22;27177;22.262;114.192;2022-11-12T08:58:24;23.80;99.90
41435;DHT22;27177;22.262;114.192;2022-11-12T09:00:52;23.80;99.90
41435;DHT22;27177;22.262;114.192;2022-11-12T09:03:21;23.80;99.90
41435;DHT22;27177;22.262;114.192;2022-11-12T09:05:49;23.70;99.90
41435;DHT22;27177;22.262;114.192;2022-11-12T09:08:18;23.70;99.90
41435;DHT22;27177;22.262;114.192;2022-11-12T09:10:47;23.60;99.90
41435;DHT22;27177;22.262;114.192;2022-11-12T09:13:14;23.60;99.90
41435;DHT22;27177;22.262;114.192;2022-11-12T09:15:42;23.50;99.90
41435;DHT22;27177;22.262;114.192;2022-11-12T09:18:15;23.50;99.90
41435;DHT22;27177;22.262;114.192;2022-11-12T09:20:42;23.40;99.90
41435;DHT22;27177;22.262;114.192;2022-11-12T09:23:13;23.40;99.90
41435;DHT22;27177;22.262;114.192;2022-11-12T09:25:41;23.30;99.90
41435;DHT22;27177;22.262;114.192;2022-11-12T09:28:16;23.30;99.90
41435;DHT22;27177;22.262;114.192;2022-11-12T09:30:45;23.30;99.90
41435;DHT22;27177;22.262;114.192;2022-11-12T09:33:13;23.20;99.90
41435;DHT22;27177;22.262;114.192;2022-11-12T09:35:41;23.10;99.90
41435;DHT22;27177;22.262;114.192;2022-11-12T09:38:08;23.10;99.90
41435;DHT22;27177;22.262;114.192;2022-11-12T09:43:34;22.90;99.90
41435;DHT22;27177;22.262;114.192;2022-11-12T09:51:37;22.70;99.90
41435;DHT22;27177;22.262;114.192;2022-11-12T09:54:23;22.70;99.90
41435;DHT22;27177;22.262;114.192;2022-11-12T09:56:51;22.60;99.90
41435;DHT22;27177;22.262;114.192;2022-11-12T09:59:18;22.50;99.90
41435;DHT22;27177;22.262;114.192;2022-11-12T10:07:02;22.40;99.90
41435;DHT22;27177;22.262;114.192;2022-11-12T10:09:38;22.40;99.90
41435;DHT22;27177;22.262;114.192;2022-11-12T10:23:45;22.20;99.90
41435;DHT22;27177;22.262;114.192;2022-11-12T10:26:15;22.30;99.90
41435;DHT22;27177;22.262;114.192;2022-11-12T10:28:54;22.30;99.90
41435;DHT22;27177;22.262;114.192;2022-11-12T10:31:23;22.20;99.90
41435;DHT22;27177;22.262;114.192;2022-11-12T10:33:50;22.20;99.90
41435;DHT22;27177;22.262;114.192;2022-11-12T10:36:27;22.20;99.90
41435;DHT22;27177;22.262;114.192;2022-11-12T10:38:55;22.20;99.90
41435;DHT22;27177;22.262;114.192;2022-11-12T10:41:28;22.20;99.90
41435;DHT22;27177;22.262;114.192;2022-11-12T10:44:03;22.20;99.90
41435;DHT22;27177;22.262;114.192;2022-11-12T10:46:35;22.30;99.90
41435;DHT22;27177;22.262;114.192;2022-11-12T10:49:25;22.20;99.90
41435;DHT22;27177;22.262;114.192;2022-11-12T10:51:56;22.20;99.90
41435;DHT22;27177;22.262;114.192;2022-11-12T10:56:53;22.20;99.90
41435;DHT22;27177;22.262;114.192;2022-11-12T10:59:22;22.20;99.90
41435;DHT22;27177;22.262;114.192;2022-11-12T11:01:59;22.10;99.90
41435;DHT22;27177;22.262;114.192;2022-11-12T11:04:36;22.20;99.90
41435;DHT22;27177;22.262;114.192;2022-11-12T11:07:27;22.10;99.90
41435;DHT22;27177;22.262;114.192;2022-11-12T11:10:00;22.10;99.90
41435;DHT22;27177;22.262;114.192;2022-11-12T11:12:30;22.10;99.90
41435;DHT22;27177;22.262;114.192;2022-11-12T11:17:35;22.10;99.90
41435;DHT22;27177;22.262;114.192;2022-11-12T11:20:04;22.10;99.90
41435;DHT22;27177;22.262;114.192;2022-11-12T11:25:45;22.20;99.90
41435;DHT22;27177;22.262;114.192;2022-11-12T14:27:48;21.20;99.90
41435;DHT22;27177;22.262;114.192;2022-11-12T14:38:09;21.20;99.90
